ンジャメナ の空港の天気 - METARとTAF

ンジャメナ国際空港 ( FTTJ / NDJ ) - チャド ンジャメナ
飛行場実況気象(Metar)
観測時間12/14 07:00 WAT (12/14 06:00 UTC)
風向・風速北北東 3m/s
視程7000m
天気現象
なし
気温18℃
湿度28%
気圧1015hPa
METARFTTJ 140600Z 02005KT 7000 NSC 18/M01 Q1015 NOSIG
過去の天気等 Google飛行場航空写真 Wunderground天気予報

過去48時間のMETAR

飛行場予報(TAF)
発表時間: 12/14 06:00 WAT (12/14 05:00 UTC)
予報対象時間: 14日7時 WAT ~ 15日13時 WAT
風向・風速北 4m/s
視程8000m
なし
TAF FTTJ 140500Z 1406/1512 01007KT 8000 NSC